Time;durP1;ratioP1;P1;durP2;ratioP2;P2;SDS_P1;SDS_P2;PMS_P1;PMS_P2;Temp;Humidity;BMP_temperature;BMP_pressure;BME280_temperature;BME280_humidity;BME280_pressure;Samples;Min_cycle;Max_cycle;Signal;HPM_P1;HPM_P2
2023/06/03 00:00:43;;;;;;;5.93;3.10;;;16.40;79.60;;;;;;5007712;28;20034;-85
2023/06/03 00:03:11;;;;;;;6.15;3.20;;;16.30;79.50;;;;;;5009254;28;20403;-84
2023/06/03 00:05:38;;;;;;;5.45;3.38;;;16.30;79.50;;;;;;5008029;28;20022;-87
2023/06/03 00:08:03;;;;;;;5.72;3.45;;;16.30;79.60;;;;;;5008633;28;20026;-85
2023/06/03 00:10:29;;;;;;;5.35;3.13;;;16.30;79.50;;;;;;5007533;28;20029;-84
2023/06/03 00:12:55;;;;;;;7.20;4.20;;;16.30;79.60;;;;;;5063146;23;20038;-86
2023/06/03 00:15:20;;;;;;;6.68;3.83;;;16.30;79.70;;;;;;5009134;28;20022;-88
2023/06/03 00:17:46;;;;;;;6.45;3.90;;;16.30;79.70;;;;;;5006808;28;20048;-86
2023/06/03 00:20:11;;;;;;;6.07;3.42;;;16.30;79.80;;;;;;5010834;28;20022;-87
2023/06/03 00:22:37;;;;;;;6.40;3.70;;;16.30;79.80;;;;;;5041380;28;20116;-86
2023/06/03 00:25:06;;;;;;;5.82;3.85;;;16.20;79.80;;;;;;5036135;28;20025;-87
2023/06/03 00:27:32;;;;;;;6.10;3.47;;;16.20;79.80;;;;;;5035332;28;20083;-87
2023/06/03 00:29:57;;;;;;;6.47;3.70;;;16.20;79.80;;;;;;5035803;28;20022;-87
2023/06/03 00:32:22;;;;;;;5.75;3.38;;;16.20;79.80;;;;;;5038135;28;20017;-86
2023/06/03 00:34:48;;;;;;;7.30;3.70;;;16.20;79.80;;;;;;5038172;28;20487;-86
2023/06/03 00:37:14;;;;;;;6.05;3.75;;;16.20;79.90;;;;;;5037942;28;20044;-86
2023/06/03 00:39:39;;;;;;;5.85;3.63;;;16.20;79.80;;;;;;5037180;28;20083;-86
2023/06/03 00:42:05;;;;;;;5.57;3.58;;;16.20;79.90;;;;;;5036570;28;20022;-86
2023/06/03 00:44:30;;;;;;;6.07;3.40;;;16.20;79.80;;;;;;5034833;28;20025;-87
2023/06/03 00:46:56;;;;;;;5.82;3.33;;;16.20;79.90;;;;;;5034117;28;20026;-86
2023/06/03 00:49:22;;;;;;;7.10;3.50;;;16.20;79.80;;;;;;5034171;28;20549;-89
2023/06/03 00:51:47;;;;;;;6.32;3.47;;;16.20;79.90;;;;;;5034141;28;20021;-86
2023/06/03 00:54:14;;;;;;;5.10;2.83;;;16.20;79.90;;;;;;5034149;28;20021;-89
2023/06/03 00:56:43;;;;;;;6.10;3.63;;;16.20;79.80;;;;;;5033972;28;20407;-89
2023/06/03 00:59:12;;;;;;;6.43;3.72;;;16.20;79.90;;;;;;5034645;28;20064;-86
2023/06/03 01:01:38;;;;;;;5.78;3.33;;;16.10;79.80;;;;;;5035707;28;20511;-86
2023/06/03 01:04:05;;;;;;;6.20;3.10;;;16.10;79.80;;;;;;5035605;28;20033;-86
2023/06/03 01:06:45;;;;;;;5.75;3.25;;;16.20;79.80;;;;;;5034158;28;20029;-87
2023/06/03 01:09:43;;;;;;;4.38;2.85;;;16.20;79.80;;;;;;5034319;28;20512;-87
2023/06/03 01:12:29;;;;;;;5.32;2.70;;;16.10;79.80;;;;;;5034361;28;20033;-87
2023/06/03 01:14:59;;;;;;;4.93;2.88;;;16.20;79.90;;;;;;5034307;28;20021;-87
2023/06/03 01:17:28;;;;;;;4.93;2.83;;;16.10;79.80;;;;;;5033623;28;20029;-87
2023/06/03 01:19:56;;;;;;;6.10;3.08;;;16.10;79.80;;;;;;5034930;28;20676;-87
2023/06/03 01:22:26;;;;;;;5.10;2.90;;;16.20;79.80;;;;;;5034829;28;20021;-87
2023/06/03 01:25:06;;;;;;;4.70;2.78;;;16.20;79.70;;;;;;5034860;28;20040;-87
2023/06/03 01:27:31;;;;;;;5.40;2.92;;;16.20;79.70;;;;;;5034677;28;20029;-87
2023/06/03 01:29:57;;;;;;;5.05;2.83;;;16.20;79.60;;;;;;5034768;28;20022;-86
2023/06/03 01:32:23;;;;;;;5.13;2.92;;;16.20;79.60;;;;;;5033488;28;20025;-87
2023/06/03 01:34:49;;;;;;;4.60;2.90;;;16.30;79.60;;;;;;5032947;28;20036;-86
2023/06/03 01:37:15;;;;;;;5.35;3.00;;;16.30;79.60;;;;;;5032899;28;20061;-88
2023/06/03 01:39:41;;;;;;;4.40;2.80;;;16.30;79.40;;;;;;5033674;28;20041;-88
2023/06/03 01:42:08;;;;;;;6.05;3.08;;;16.30;79.40;;;;;;5033382;28;20140;-88
2023/06/03 01:44:34;;;;;;;4.85;2.60;;;16.30;79.40;;;;;;5034752;28;20394;-89
2023/06/03 01:47:00;;;;;;;4.78;2.67;;;16.30;79.40;;;;;;5034295;28;20105;-89
2023/06/03 01:49:26;;;;;;;4.88;3.03;;;16.30;79.50;;;;;;5033159;28;20026;-89
2023/06/03 01:51:51;;;;;;;5.13;3.00;;;16.30;79.50;;;;;;5034276;28;20057;-89
2023/06/03 01:54:18;;;;;;;5.20;2.80;;;16.30;79.50;;;;;;5033033;28;20026;-89
2023/06/03 01:56:43;;;;;;;5.00;3.10;;;16.20;79.40;;;;;;5033032;28;20029;-88
2023/06/03 01:59:09;;;;;;;6.45;3.75;;;16.20;79.60;;;;;;5032841;28;20081;-89
2023/06/03 02:01:36;;;;;;;6.22;3.30;;;16.20;79.60;;;;;;5032904;28;20103;-88
2023/06/03 02:04:02;;;;;;;5.57;3.33;;;16.20;79.70;;;;;;5034261;28;20025;-89
2023/06/03 02:06:28;;;;;;;6.20;3.42;;;16.20;79.70;;;;;;5032749;28;20029;-89
2023/06/03 02:08:53;;;;;;;7.07;3.13;;;16.20;79.70;;;;;;5032773;28;20529;-89
2023/06/03 02:11:19;;;;;;;5.00;2.92;;;16.10;79.70;;;;;;5032543;28;20075;-89
2023/06/03 02:13:44;;;;;;;5.18;2.70;;;16.10;79.70;;;;;;5032697;28;20181;-88
2023/06/03 02:16:10;;;;;;;5.50;3.33;;;16.20;79.80;;;;;;5033892;28;20434;-87
2023/06/03 02:18:37;;;;;;;5.32;3.03;;;16.10;79.70;;;;;;5032582;28;20026;-89
2023/06/03 02:21:03;;;;;;;5.05;3.00;;;16.10;79.70;;;;;;5033726;28;20049;-89
2023/06/03 02:23:28;;;;;;;4.63;3.00;;;16.10;79.70;;;;;;5032554;28;20513;-89
2023/06/03 02:25:54;;;;;;;5.05;2.80;;;16.10;79.70;;;;;;5033815;28;20096;-88
2023/06/03 02:28:22;;;;;;;5.20;3.00;;;16.10;79.70;;;;;;5032152;28;20032;-88
2023/06/03 02:30:48;;;;;;;4.88;2.90;;;16.20;79.80;;;;;;5032457;28;20018;-89
2023/06/03 02:33:14;;;;;;;4.70;2.80;;;16.10;79.70;;;;;;5032395;28;20025;-89
2023/06/03 02:35:39;;;;;;;5.60;3.25;;;16.10;79.70;;;;;;5031846;28;20025;-88
2023/06/03 02:38:05;;;;;;;4.88;2.85;;;16.10;79.70;;;;;;5032154;28;20053;-88
2023/06/03 02:40:30;;;;;;;5.68;2.72;;;16.10;79.70;;;;;;5032275;28;20056;-89
2023/06/03 02:42:56;;;;;;;5.22;2.83;;;16.10;79.70;;;;;;5032160;28;20032;-88
2023/06/03 02:45:21;;;;;;;5.47;3.10;;;16.10;79.70;;;;;;5032158;28;20026;-89
2023/06/03 02:47:47;;;;;;;5.10;2.55;;;16.10;79.70;;;;;;5032384;28;20534;-89
2023/06/03 02:50:12;;;;;;;4.88;2.83;;;16.10;79.70;;;;;;5019817;28;20034;-88
2023/06/03 02:52:38;;;;;;;4.85;2.80;;;16.10;79.70;;;;;;5013348;28;20018;-88
2023/06/03 02:55:04;;;;;;;4.80;2.65;;;16.10;79.70;;;;;;5013437;28;20033;-88
2023/06/03 02:57:29;;;;;;;4.82;2.80;;;16.10;79.60;;;;;;5011929;28;20034;-88
2023/06/03 02:59:56;;;;;;;4.80;2.63;;;16.10;79.60;;;;;;5012154;28;20037;-88
2023/06/03 03:02:21;;;;;;;5.43;2.90;;;16.10;79.60;;;;;;5012001;28;20503;-88
2023/06/03 03:04:47;;;;;;;5.30;2.50;;;16.10;79.60;;;;;;5012064;28;20030;-89
2023/06/03 03:07:12;;;;;;;5.00;2.60;;;16.10;79.60;;;;;;5012987;28;20120;-89
2023/06/03 03:09:38;;;;;;;5.25;2.72;;;16.10;79.50;;;;;;5011877;28;20448;-88
2023/06/03 03:12:04;;;;;;;5.65;2.58;;;16.10;79.40;;;;;;5013087;28;20578;-88
2023/06/03 03:14:30;;;;;;;4.47;2.50;;;16.20;79.40;;;;;;5018582;28;20032;-88
2023/06/03 03:16:56;;;;;;;4.50;2.47;;;16.20;79.40;;;;;;5011855;28;20109;-89
2023/06/03 03:19:22;;;;;;;4.45;2.42;;;16.20;79.30;;;;;;5011654;28;20456;-88
2023/06/03 03:21:47;;;;;;;4.65;2.47;;;16.20;79.20;;;;;;5011745;28;20053;-89
2023/06/03 03:24:13;;;;;;;4.45;2.60;;;16.30;79.20;;;;;;5011783;28;20506;-89
2023/06/03 03:26:39;;;;;;;3.90;2.20;;;16.20;79.20;;;;;;5011447;28;20022;-88
2023/06/03 03:29:05;;;;;;;3.83;2.20;;;16.20;79.10;;;;;;5012906;28;20414;-88
2023/06/03 03:31:31;;;;;;;4.20;2.40;;;16.20;79.00;;;;;;5011713;28;20091;-88
2023/06/03 03:33:56;;;;;;;4.28;2.20;;;16.30;79.10;;;;;;5011732;28;20460;-88
2023/06/03 03:36:26;;;;;;;3.92;2.42;;;16.20;79.00;;;;;;5011797;28;20029;-87
2023/06/03 03:39:03;;;;;;;5.18;2.50;;;16.20;79.10;;;;;;5012135;28;20045;-88
2023/06/03 03:41:30;;;;;;;5.20;2.70;;;16.20;79.20;;;;;;5012192;28;20117;-88
2023/06/03 03:43:56;;;;;;;4.93;2.63;;;16.20;79.20;;;;;;5011622;28;20476;-88
2023/06/03 03:46:21;;;;;;;5.18;2.78;;;16.10;79.30;;;;;;5011618;28;20495;-88
2023/06/03 03:48:47;;;;;;;5.03;3.05;;;16.10;79.30;;;;;;5011657;28;20018;-88
2023/06/03 03:51:13;;;;;;;5.05;2.60;;;16.10;79.40;;;;;;5012928;28;20674;-88
2023/06/03 03:53:43;;;;;;;4.57;2.38;;;16.10;79.40;;;;;;5012816;28;20491;-88
2023/06/03 03:56:09;;;;;;;5.13;2.53;;;16.10;79.40;;;;;;5012613;28;20167;-88
2023/06/03 03:58:40;;;;;;;4.63;2.80;;;16.10;79.50;;;;;;5012174;28;20041;-89
2023/06/03 04:01:15;;;;;;;4.07;2.40;;;16.10;79.40;;;;;;5011400;28;20171;-88
2023/06/03 04:03:45;;;;;;;4.55;2.58;;;16.10;79.50;;;;;;5012523;28;20105;-89
2023/06/03 04:06:26;;;;;;;4.45;2.40;;;16.10;79.50;;;;;;5011387;28;20108;-87
2023/06/03 04:08:54;;;;;;;4.85;2.70;;;16.10;79.40;;;;;;5015645;28;20163;-86
2023/06/03 04:11:34;;;;;;;4.32;2.55;;;16.10;79.40;;;;;;5012955;28;20044;-88
2023/06/03 04:14:01;;;;;;;4.47;2.38;;;16.10;79.40;;;;;;5014777;28;20018;-88
2023/06/03 04:16:55;;;;;;;4.28;2.50;;;16.10;79.90;;;;;;5013491;28;20030;-88
2023/06/03 04:19:36;;;;;;;3.97;2.20;;;16.10;79.30;;;;;;5013385;28;20029;-88
2023/06/03 04:22:03;;;;;;;4.85;2.67;;;16.10;79.30;;;;;;5011796;28;20040;-88
2023/06/03 04:24:29;;;;;;;4.45;2.53;;;16.10;79.30;;;;;;5011784;28;20029;-88
2023/06/03 04:26:55;;;;;;;4.63;2.58;;;16.10;79.30;;;;;;5012568;28;20049;-88
2023/06/03 04:29:22;;;;;;;4.45;2.50;;;16.10;79.30;;;;;;5011077;28;20033;-88
2023/06/03 04:31:47;;;;;;;4.65;2.35;;;16.10;79.30;;;;;;5012192;28;20077;-88
2023/06/03 04:34:13;;;;;;;3.80;2.10;;;16.10;79.20;;;;;;5011002;28;20026;-88
2023/06/03 04:36:38;;;;;;;4.97;2.45;;;16.10;79.20;;;;;;5010823;28;20489;-89
2023/06/03 04:39:08;;;;;;;4.10;2.33;;;16.10;79.20;;;;;;5012491;28;20022;-88
2023/06/03 04:41:37;;;;;;;4.20;2.40;;;16.10;79.20;;;;;;5011423;28;20026;-88
2023/06/03 04:44:08;;;;;;;4.22;2.40;;;16.10;79.20;;;;;;5011481;28;20408;-88
2023/06/03 04:46:35;;;;;;;4.40;2.55;;;16.10;79.20;;;;;;5012793;28;20451;-87
2023/06/03 04:49:01;;;;;;;4.55;2.38;;;16.10;79.20;;;;;;5010522;28;20026;-88
2023/06/03 04:51:33;;;;;;;4.47;2.63;;;16.10;79.20;;;;;;5021954;28;20391;-88
2023/06/03 04:53:59;;;;;;;3.60;2.17;;;16.10;79.10;;;;;;4992874;28;20022;-88
2023/06/03 04:56:24;;;;;;;3.70;2.22;;;16.10;79.00;;;;;;4992527;28;20384;-88
2023/06/03 04:58:54;;;;;;;3.45;2.15;;;16.10;78.90;;;;;;4992831;28;20027;-88
2023/06/03 05:01:23;;;;;;;4.28;2.40;;;16.20;78.90;;;;;;4991245;28;20468;-88
2023/06/03 05:03:51;;;;;;;4.18;2.33;;;16.20;78.80;;;;;;5007562;28;20030;-88
2023/06/03 05:06:16;;;;;;;5.38;2.28;;;16.20;78.70;;;;;;5022792;28;20159;-87
2023/06/03 05:08:41;;;;;;;4.60;2.45;;;16.20;78.60;;;;;;5017050;28;20507;-88
2023/06/03 05:11:07;;;;;;;3.72;1.90;;;16.20;78.60;;;;;;5014001;28;20105;-87
2023/06/03 05:13:34;;;;;;;4.40;2.22;;;16.20;78.60;;;;;;5015764;28;20030;-88
2023/06/03 05:16:00;;;;;;;4.43;2.22;;;16.30;78.60;;;;;;5015519;28;20499;-88
2023/06/03 05:18:25;;;;;;;4.05;2.30;;;16.30;78.50;;;;;;5014156;28;20030;-88
2023/06/03 05:20:51;;;;;;;5.10;2.70;;;16.20;78.50;;;;;;5014019;28;20479;-88
2023/06/03 05:23:16;;;;;;;5.15;2.65;;;16.20;78.60;;;;;;5013934;28;20045;-88
2023/06/03 05:25:42;;;;;;;5.47;2.50;;;16.20;78.60;;;;;;5013924;28;20059;-88
2023/06/03 05:28:07;;;;;;;5.20;2.78;;;16.20;78.60;;;;;;5014916;28;20048;-88
2023/06/03 05:30:33;;;;;;;4.13;2.38;;;16.20;78.70;;;;;;5013919;28;20081;-88
2023/06/03 05:32:58;;;;;;;4.53;2.50;;;16.20;78.80;;;;;;5015065;28;20388;-88
2023/06/03 05:35:24;;;;;;;4.78;2.40;;;16.20;78.80;;;;;;5015425;28;20083;-88
2023/06/03 05:37:49;;;;;;;4.72;2.60;;;16.20;78.90;;;;;;5014212;28;20030;-87
2023/06/03 05:40:15;;;;;;;4.22;2.38;;;16.20;78.90;;;;;;5015660;28;20199;-88
2023/06/03 05:42:41;;;;;;;4.78;2.50;;;16.10;78.90;;;;;;5013769;28;20030;-89
2023/06/03 05:45:07;;;;;;;4.80;2.70;;;16.10;78.80;;;;;;5014716;28;20089;-86
2023/06/03 05:47:33;;;;;;;4.75;2.50;;;16.20;78.90;;;;;;5011174;28;20037;-87
2023/06/03 05:50:07;;;;;;;5.03;2.60;;;16.20;78.90;;;;;;5012798;28;20026;-87
2023/06/03 05:52:33;;;;;;;5.28;2.58;;;16.30;78.90;;;;;;5011833;28;20113;-87
2023/06/03 05:54:58;;;;;;;3.85;2.30;;;16.30;78.90;;;;;;5011287;28;20117;-84
2023/06/03 05:57:29;;;;;;;3.88;2.30;;;16.20;78.80;;;;;;5010898;28;20053;-88
2023/06/03 05:59:55;;;;;;;4.32;2.22;;;16.20;78.90;;;;;;5005810;28;20085;-87
2023/06/03 06:02:20;;;;;;;3.72;2.10;;;16.20;78.80;;;;;;5007127;28;20207;-88
2023/06/03 06:04:46;;;;;;;4.82;2.60;;;16.20;78.80;;;;;;5011560;28;20033;-89
2023/06/03 06:07:12;;;;;;;4.15;2.13;;;16.20;78.70;;;;;;4992284;28;20034;-87
2023/06/03 06:09:38;;;;;;;3.50;1.88;;;16.20;78.70;;;;;;4992288;28;20026;-88
2023/06/03 06:12:04;;;;;;;3.90;2.17;;;16.20;78.70;;;;;;4990459;28;20114;-89
2023/06/03 06:14:30;;;;;;;3.55;1.90;;;16.20;78.70;;;;;;4990670;28;20022;-88
2023/06/03 06:16:55;;;;;;;3.95;2.13;;;16.20;78.60;;;;;;5007122;28;20037;-89
2023/06/03 06:19:22;;;;;;;4.28;2.28;;;16.20;78.50;;;;;;4990699;28;20595;-88
2023/06/03 06:21:48;;;;;;;3.90;1.92;;;16.20;78.50;;;;;;4990578;28;20034;-88
2023/06/03 06:24:13;;;;;;;4.03;2.00;;;16.20;78.50;;;;;;4991442;28;20432;-88
2023/06/03 06:26:39;;;;;;;3.58;2.00;;;16.20;78.50;;;;;;4990701;28;20018;-88
2023/06/03 06:29:05;;;;;;;3.17;1.70;;;16.20;78.40;;;;;;4991320;28;20030;-88
2023/06/03 06:31:31;;;;;;;3.20;2.00;;;16.30;78.50;;;;;;4991227;28;20046;-86
2023/06/03 06:33:59;;;;;;;4.10;2.25;;;16.30;78.40;;;;;;4993541;28;20033;-87
2023/06/03 06:36:30;;;;;;;4.47;2.28;;;16.30;78.40;;;;;;4992847;28;20054;-87
2023/06/03 06:38:57;;;;;;;5.07;2.10;;;16.30;78.40;;;;;;4993640;28;20030;-88
2023/06/03 06:41:25;;;;;;;3.25;1.80;;;16.30;78.30;;;;;;4992560;28;20085;-87
2023/06/03 06:43:52;;;;;;;3.28;1.85;;;16.30;78.20;;;;;;4994514;28;20018;-87
2023/06/03 06:46:40;;;;;;;3.88;2.05;;;16.40;78.10;;;;;;4992768;28;20121;-87
2023/06/03 06:49:26;;;;;;;4.78;2.33;;;16.30;77.90;;;;;;4993418;28;20080;-88
2023/06/03 06:52:26;;;;;;;;;;;;;;;;;;;;;
2023/06/03 06:55:39;;;;;;;;;;;;;;;;;;;;;
2023/06/03 06:58:07;;;;;;;3.75;1.98;;;16.50;77.60;;;;;;4995341;28;20034;-85
2023/06/03 07:00:33;;;;;;;5.10;2.20;;;17.30;77.90;;;;;;4986807;28;20078;-84
2023/06/03 07:03:01;;;;;;;3.30;1.83;;;16.80;77.50;;;;;;5010566;28;20041;-84
2023/06/03 07:05:27;;;;;;;3.70;2.03;;;16.50;77.40;;;;;;5015679;28;20030;-86
2023/06/03 07:07:52;;;;;;;3.92;2.00;;;16.50;77.40;;;;;;5015238;28;20041;-85
2023/06/03 07:10:21;;;;;;;3.72;2.25;;;16.50;77.40;;;;;;5014006;28;20504;-85
2023/06/03 07:12:51;;;;;;;3.95;2.05;;;16.50;77.40;;;;;;5013534;28;20770;-85
2023/06/03 07:15:17;;;;;;;3.17;1.75;;;16.50;77.30;;;;;;5013738;28;20030;-85
2023/06/03 07:18:03;;;;;;;5.10;2.38;;;16.50;77.00;;;;;;5012565;28;20060;-84
2023/06/03 07:20:50;;;;;;;3.88;2.05;;;16.50;77.30;;;;;;5008594;28;20048;-85
2023/06/03 07:23:30;;;;;;;3.67;1.85;;;16.50;77.40;;;;;;5012980;28;20467;-86
2023/06/03 07:25:56;;;;;;;4.25;2.10;;;16.60;77.40;;;;;;5011516;28;20117;-85
2023/06/03 07:28:30;;;;;;;4.65;2.22;;;16.60;77.40;;;;;;5011464;28;20546;-86
2023/06/03 07:30:58;;;;;;;3.60;1.90;;;16.60;77.30;;;;;;5011871;28;20026;-85
2023/06/03 07:33:30;;;;;;;4.80;2.28;;;16.60;77.30;;;;;;5010106;28;20096;-83
2023/06/03 07:35:57;;;;;;;;;;;16.60;77.30;;;;;;5011714;28;20228;-85
2023/06/03 07:38:52;;;;;;;4.00;2.00;;;16.60;77.30;;;;;;5010496;28;19909;-86
2023/06/03 07:41:34;;;;;;;3.30;1.80;;;16.60;77.30;;;;;;5014621;28;20049;-85
2023/06/03 07:43:59;;;;;;;3.00;1.75;;;16.60;77.30;;;;;;5004335;28;20159;-78
2023/06/03 07:46:39;;;;;;;4.50;2.10;;;16.60;77.10;;;;;;5014170;28;20440;-85
2023/06/03 07:49:09;;;;;;;4.07;2.03;;;16.60;77.10;;;;;;5017663;28;20109;-85
2023/06/03 07:51:34;;;;;;;4.32;2.20;;;16.60;77.10;;;;;;5014019;28;20025;-85
2023/06/03 07:54:02;;;;;;;3.88;2.17;;;16.70;77.10;;;;;;5018256;28;20045;-86
2023/06/03 07:56:29;;;;;;;4.57;2.50;;;16.70;77.00;;;;;;5019951;28;20085;-86
2023/06/03 07:58:54;;;;;;;3.83;2.00;;;16.70;77.00;;;;;;5018788;28;20030;-86
2023/06/03 08:01:24;;;;;;;6.00;2.35;;;16.70;77.00;;;;;;5015635;28;20516;-85
2023/06/03 08:03:51;;;;;;;5.85;2.13;;;16.70;76.80;;;;;;5018132;28;20030;-84
2023/06/03 08:06:17;;;;;;;6.97;2.10;;;16.70;76.70;;;;;;5017427;28;20026;-87
2023/06/03 08:08:43;;;;;;;6.95;2.30;;;16.80;76.50;;;;;;5017373;28;20040;-85
2023/06/03 08:11:09;;;;;;;7.28;2.20;;;16.70;76.20;;;;;;5016966;28;20026;-85
2023/06/03 08:13:34;;;;;;;7.53;2.47;;;16.80;76.10;;;;;;5016245;28;20036;-82
2023/06/03 08:16:00;;;;;;;4.57;1.83;;;16.80;76.10;;;;;;5015524;28;20109;-84
2023/06/03 08:18:50;;;;;;;5.00;2.03;;;16.80;76.00;;;;;;5015838;28;20070;-84
2023/06/03 08:21:16;;;;;;;7.18;2.22;;;16.90;75.90;;;;;;5015521;28;20113;-86
2023/06/03 08:23:42;;;;;;;6.57;2.17;;;16.90;75.90;;;;;;5016043;28;20026;-87
2023/06/03 08:26:10;;;;;;;7.63;2.33;;;16.90;75.80;;;;;;5016793;28;20022;-86
2023/06/03 08:28:39;;;;;;;5.97;2.30;;;16.90;75.60;;;;;;5016714;28;20026;-86
2023/06/03 08:31:04;;;;;;;5.72;2.00;;;17.00;75.40;;;;;;5015136;28;20026;-85
2023/06/03 08:33:30;;;;;;;7.38;2.50;;;17.10;75.30;;;;;;5015359;28;20029;-86
2023/06/03 08:35:56;;;;;;;8.20;2.53;;;17.10;75.20;;;;;;5014966;28;20164;-86
2023/06/03 08:38:22;;;;;;;6.88;2.03;;;17.10;75.10;;;;;;5014314;28;20034;-86
2023/06/03 08:40:50;;;;;;;4.72;2.00;;;17.20;75.10;;;;;;5016296;28;20037;-86
2023/06/03 08:43:16;;;;;;;4.32;1.85;;;17.10;74.90;;;;;;5000782;28;20022;-85
2023/06/03 08:46:06;;;;;;;4.50;2.28;;;17.20;75.00;;;;;;5015679;28;20044;-85
2023/06/03 08:48:52;;;;;;;;;;;17.20;74.90;;;;;;4999229;28;20034;-86
2023/06/03 08:51:22;;;;;;;5.25;1.98;;;17.20;75.00;;;;;;4983444;28;19944;-85
2023/06/03 08:53:50;;;;;;;4.50;2.08;;;17.10;74.60;;;;;;5017700;28;20033;-86
2023/06/03 08:56:17;;;;;;;6.13;2.10;;;17.20;74.60;;;;;;5019260;28;20026;-84
2023/06/03 08:58:47;;;;;;;4.68;1.95;;;17.10;74.70;;;;;;5017496;28;20037;-86
2023/06/03 09:01:16;;;;;;;3.22;1.80;;;17.10;74.90;;;;;;5016703;28;20045;-86
2023/06/03 09:03:43;;;;;;;5.10;1.80;;;17.20;75.00;;;;;;5016568;28;20030;-85
2023/06/03 09:06:09;;;;;;;5.60;2.00;;;17.10;75.10;;;;;;5016608;28;20456;-86
2023/06/03 09:08:36;;;;;;;5.93;2.00;;;17.20;75.20;;;;;;5018012;28;20030;-84
2023/06/03 09:11:04;;;;;;;8.10;2.15;;;17.10;75.30;;;;;;5014780;28;20037;-84
2023/06/03 09:13:33;;;;;;;5.93;2.30;;;17.30;75.10;;;;;;5016389;28;20084;-86
2023/06/03 09:15:59;;;;;;;5.32;1.85;;;17.10;74.80;;;;;;5015898;28;20033;-85
2023/06/03 09:18:25;;;;;;;4.70;2.10;;;17.20;74.90;;;;;;5015804;28;20133;-85
2023/06/03 09:20:50;;;;;;;4.70;1.80;;;17.20;74.60;;;;;;5015944;28;20044;-84
2023/06/03 09:23:16;;;;;;;5.43;2.20;;;17.20;74.70;;;;;;5015308;28;20480;-83
2023/06/03 09:25:43;;;;;;;6.18;1.85;;;17.20;74.70;;;;;;5015378;28;20046;-85
2023/06/03 09:28:10;;;;;;;4.28;1.52;;;17.30;74.70;;;;;;5012465;28;20037;-86
2023/06/03 09:30:35;;;;;;;7.18;2.20;;;17.30;74.60;;;;;;5017045;28;20499;-86
2023/06/03 09:33:01;;;;;;;5.10;1.70;;;17.30;74.60;;;;;;5015198;28;20033;-84
2023/06/03 09:35:27;;;;;;;4.60;1.92;;;17.30;74.60;;;;;;5013822;28;20025;-86
2023/06/03 09:38:01;;;;;;;5.03;1.90;;;17.30;74.70;;;;;;4997967;28;20506;-86
2023/06/03 09:40:29;;;;;;;5.18;1.77;;;17.30;74.50;;;;;;5002529;28;20038;-86
2023/06/03 09:42:55;;;;;;;5.43;2.20;;;17.30;74.60;;;;;;5015315;28;20030;-86
2023/06/03 09:45:35;;;;;;;7.15;1.95;;;17.30;74.60;;;;;;5015307;28;20040;-86
2023/06/03 09:48:02;;;;;;;4.70;1.95;;;17.40;74.70;;;;;;5015108;28;20484;-86
2023/06/03 09:50:30;;;;;;;5.22;1.75;;;17.40;74.70;;;;;;5014823;28;20476;-86
2023/06/03 09:52:56;;;;;;;6.03;1.83;;;17.40;74.60;;;;;;5006984;28;20042;-86
2023/06/03 09:55:29;;;;;;;5.20;1.70;;;17.40;74.70;;;;;;5014284;28;20107;-86
2023/06/03 09:58:13;;;;;;;4.60;1.77;;;17.40;74.70;;;;;;5013686;28;20129;-86
2023/06/03 10:00:47;;;;;;;4.22;1.80;;;17.40;74.70;;;;;;5009924;28;20525;-86
2023/06/03 10:03:12;;;;;;;5.93;2.03;;;17.40;74.60;;;;;;4996091;28;20052;-86
2023/06/03 10:05:38;;;;;;;4.82;1.88;;;17.40;74.50;;;;;;4994452;28;20026;-86
2023/06/03 10:08:04;;;;;;;7.10;2.13;;;17.40;74.40;;;;;;4993925;28;20399;-86
2023/06/03 10:10:31;;;;;;;6.18;2.03;;;17.50;74.40;;;;;;4994269;28;20029;-85
2023/06/03 10:12:57;;;;;;;5.65;1.92;;;17.50;74.40;;;;;;4995126;28;20093;-86
2023/06/03 10:15:39;;;;;;;5.15;1.70;;;17.50;74.30;;;;;;4995226;28;20030;-86
2023/06/03 10:18:06;;;;;;;7.50;2.25;;;17.50;74.20;;;;;;4993634;28;20026;-85
2023/06/03 10:20:38;;;;;;;6.00;2.00;;;17.50;74.10;;;;;;4993884;28;20030;-85
2023/06/03 10:23:06;;;;;;;9.63;2.20;;;17.50;74.20;;;;;;5010973;28;20026;-85
2023/06/03 10:25:36;;;;;;;7.65;2.50;;;17.50;74.00;;;;;;5014764;28;20025;-85
2023/06/03 10:28:01;;;;;;;10.90;2.38;;;17.50;73.70;;;;;;5013273;28;20033;-86
2023/06/03 10:30:30;;;;;;;8.57;2.42;;;17.50;73.90;;;;;;5014509;28;20022;-86
2023/06/03 10:32:58;;;;;;;11.55;2.72;;;17.50;73.80;;;;;;5012830;28;20030;-85
2023/06/03 10:35:24;;;;;;;11.63;3.05;;;17.50;74.00;;;;;;5013025;28;20033;-86
2023/06/03 10:37:49;;;;;;;10.88;2.65;;;17.40;74.10;;;;;;5012634;28;20026;-86
2023/06/03 10:40:16;;;;;;;12.88;3.42;;;17.40;74.20;;;;;;5015986;28;20146;-86
2023/06/03 10:42:43;;;;;;;12.80;3.20;;;17.40;74.20;;;;;;5018229;28;20033;-83
2023/06/03 10:45:11;;;;;;;11.70;3.17;;;17.40;74.30;;;;;;5019652;28;20040;-83
2023/06/03 10:47:38;;;;;;;9.27;2.88;;;17.40;74.30;;;;;;5018952;28;20026;-84
2023/06/03 10:50:18;;;;;;;11.73;3.00;;;17.40;74.30;;;;;;5019721;28;20129;-82
2023/06/03 10:53:02;;;;;;;11.63;2.78;;;17.40;74.30;;;;;;5014964;28;20026;-83
2023/06/03 10:55:34;;;;;;;11.98;2.70;;;17.40;74.40;;;;;;5019155;28;20124;-84
2023/06/03 10:58:04;;;;;;;10.88;2.97;;;17.40;74.40;;;;;;5017708;28;20018;-85
2023/06/03 11:00:52;;;;;;;12.48;2.83;;;17.40;74.40;;;;;;5018470;28;20041;-83
2023/06/03 11:03:18;;;;;;;9.98;2.78;;;17.40;74.40;;;;;;5016339;28;20063;-82
2023/06/03 11:05:47;;;;;;;7.78;2.50;;;17.40;74.40;;;;;;5016528;28;20098;-83
2023/06/03 11:08:13;;;;;;;10.57;2.70;;;17.40;74.50;;;;;;5015687;28;20021;-82
2023/06/03 11:10:39;;;;;;;14.40;2.80;;;17.40;74.40;;;;;;5016655;28;20048;-83
2023/06/03 11:13:05;;;;;;;9.80;3.00;;;17.40;74.40;;;;;;5012641;28;20030;-83
2023/06/03 11:15:58;;;;;;;8.50;2.60;;;17.40;74.50;;;;;;4997741;28;20097;-84
2023/06/03 11:18:23;;;;;;;10.93;2.47;;;17.40;74.40;;;;;;4997602;28;20060;-84
2023/06/03 11:20:49;;;;;;;9.45;2.67;;;17.40;74.50;;;;;;4998201;28;20026;-83
2023/06/03 11:23:43;;;;;;;7.72;2.50;;;17.40;74.50;;;;;;5012325;28;20030;-83
2023/06/03 11:26:34;;;;;;;10.93;2.65;;;17.40;74.50;;;;;;5011192;28;20025;-82
2023/06/03 11:29:04;;;;;;;7.45;2.30;;;17.40;74.50;;;;;;5007840;28;20030;-84
2023/06/03 11:31:31;;;;;;;10.00;2.58;;;17.40;74.30;;;;;;5000908;28;20121;-83
2023/06/03 11:34:19;;;;;;;9.10;2.60;;;17.40;74.20;;;;;;5011707;28;20037;-83
2023/06/03 11:36:50;;;;;;;8.90;2.17;;;17.50;74.20;;;;;;5005713;28;20109;-81
2023/06/03 11:39:15;;;;;;;9.57;2.50;;;17.40;74.10;;;;;;4996995;28;20034;-84
2023/06/03 11:42:01;;;;;;;8.63;2.50;;;17.50;74.10;;;;;;4999740;28;20397;-85
2023/06/03 11:44:27;;;;;;;8.02;2.10;;;17.50;74.10;;;;;;5002186;28;20014;-84
2023/06/03 11:46:53;;;;;;;7.95;2.70;;;17.50;74.00;;;;;;5016754;28;20133;-85
2023/06/03 11:49:21;;;;;;;13.32;2.65;;;17.40;73.90;;;;;;5015573;28;20025;-85
2023/06/03 11:51:56;;;;;;;7.65;2.08;;;17.40;73.30;;;;;;5011429;28;20018;-85
2023/06/03 11:54:22;;;;;;;10.02;2.67;;;17.40;73.50;;;;;;4995766;28;20022;-83
2023/06/03 11:56:50;;;;;;;7.68;2.50;;;17.40;73.70;;;;;;5003148;28;20444;-84
2023/06/03 11:59:19;;;;;;;12.23;2.80;;;17.30;73.90;;;;;;5002814;28;20030;-85
2023/06/03 12:02:05;;;;;;;8.23;1.92;;;17.30;74.10;;;;;;5001323;28;20033;-84
2023/06/03 12:04:32;;;;;;;7.38;2.58;;;17.30;74.30;;;;;;5006655;28;20030;-83
2023/06/03 12:06:59;;;;;;;7.97;2.67;;;17.30;74.50;;;;;;4996284;28;20096;-84
2023/06/03 12:09:27;;;;;;;13.07;2.90;;;17.30;74.70;;;;;;5012120;28;20449;-85
2023/06/03 12:11:54;;;;;;;7.75;2.20;;;17.20;74.60;;;;;;5007456;28;20026;-80
2023/06/03 12:14:27;;;;;;;7.50;1.98;;;17.20;74.90;;;;;;5005098;28;20019;-83
2023/06/03 12:16:54;;;;;;;7.72;2.42;;;17.20;75.00;;;;;;5002705;28;20388;-83
2023/06/03 12:19:20;;;;;;;6.35;2.10;;;17.20;75.00;;;;;;5016590;28;20030;-81
2023/06/03 12:21:58;;;;;;;11.90;2.72;;;17.20;75.10;;;;;;5019620;28;20021;-82
2023/06/03 12:24:29;;;;;;;8.05;2.28;;;17.20;75.20;;;;;;5016838;28;20031;-84
2023/06/03 12:26:55;;;;;;;7.50;2.42;;;17.10;75.20;;;;;;5018922;28;20022;-83
2023/06/03 12:29:21;;;;;;;9.40;2.67;;;17.10;75.30;;;;;;5020724;28;20029;-83
2023/06/03 12:32:16;;;;;;;6.10;1.98;;;17.10;75.30;;;;;;5018882;28;20030;-83
2023/06/03 12:34:43;;;;;;;7.22;2.40;;;17.10;75.40;;;;;;5000602;28;20026;-83
2023/06/03 12:37:08;;;;;;;6.50;2.20;;;17.10;75.50;;;;;;5019328;28;20034;-83
2023/06/03 12:39:48;;;;;;;6.53;2.10;;;17.10;75.40;;;;;;5020544;28;20087;-83
2023/06/03 12:42:16;;;;;;;5.55;2.13;;;17.20;75.40;;;;;;5017620;28;20030;-82
2023/06/03 12:44:55;;;;;;;8.00;2.33;;;17.10;75.50;;;;;;5018771;28;20026;-83
2023/06/03 12:47:21;;;;;;;6.80;2.25;;;17.10;75.60;;;;;;5018561;28;20236;-83
2023/06/03 12:50:07;;;;;;;7.45;2.33;;;17.10;75.50;;;;;;5018587;28;20495;-83
2023/06/03 12:52:36;;;;;;;6.80;1.98;;;17.10;75.40;;;;;;5018526;28;20022;-83
2023/06/03 12:55:03;;;;;;;6.47;2.25;;;17.20;75.40;;;;;;5019087;28;20030;-83
2023/06/03 12:57:30;;;;;;;7.35;2.10;;;17.20;75.30;;;;;;5017162;28;20035;-83